PWSweather.com
Personal Weather Stations
Station Observations
KA1WBH
West Island, Fairhaven, MA 02719

West IslandFairhaven, MA 02719

Lat: 41.5979996, Lon: -70.8330002

Elevation: 78

Station Type: Davis Vantage Pro II

Latest ConditionsUpdated 7:15:04 AM EDT Friday, Oct 31, 2014
Currently Today's Max Today's Min Today's Average
Temperature 47.7°F8.7°C 47.8°F8.8°C 43.8°F6.6°C 45.6°F7.6°C
Dew Point 44.6°F7.0°C 44.7°F7.1°C 39.9°F4.4°C 41.8°F5.4°C
Winds 5.0 mph NE8.0 kmh NE 7.0 mph ENE11.3 kmh ENE - 1.7 mph 2.7 kmh
Wind Gusts 10.0 mph16.1 kmh 10.0 mph16.1 kmh - -
Humidity 89% 90% 80% 87%
Pressure 30.01 in1016.3 mb 30.02 in1016.6 mb 29.99 in1015.6 mb -
Hour Temp Dew Point Humidity Winds Wind Gusts Pressure Precip Precip Rate Daily Precip Total
07:15 AM 47.7°F8.7°C 44.6°F7.0°C 89% 5.0 mph NE8.0 kmh NE 10.0 mph16.1 kmh 30.01 in1016.3 mb 0.00 in0.0 mm 0.00 in/hr0.0 mm/hr 0.00 in0.0 mm
07:00 AM 47.8°F8.8°C 44.7°F7.1°C 89% 4.0 mph NE6.4 kmh NE 6.0 mph9.7 kmh 30.02 in1016.6 mb 0.00 in0.0 mm 0.00 in/hr0.0 mm/hr 0.00 in0.0 mm
06:45 AM 47.5°F8.6°C 44.4°F6.9°C 89% 2.0 mph NE3.2 kmh NE 9.0 mph14.5 kmh 30.02 in1016.6 mb 0.00 in0.0 mm 0.00 in/hr0.0 mm/hr 0.00 in0.0 mm
06:30 AM 47.0°F8.3°C 44.2°F6.8°C 90% 5.0 mph ENE8.0 kmh ENE 7.0 mph11.3 kmh 30.01 in1016.3 mb 0.00 in0.0 mm 0.00 in/hr0.0 mm/hr 0.00 in0.0 mm
06:15 AM 47.1°F8.4°C 44.3°F6.8°C 90% 7.0 mph ENE11.3 kmh ENE 9.0 mph14.5 kmh 30.01 in1016.3 mb 0.00 in0.0 mm 0.00 in/hr0.0 mm/hr 0.00 in0.0 mm
03:40 AM 44.4°F6.9°C 41.7°F5.4°C 90% 1.0 mph N1.6 kmh N 4.0 mph6.4 kmh 29.99 in1015.6 mb 0.00 in0.0 mm 0.00 in/hr0.0 mm/hr 0.00 in0.0 mm
03:25 AM 44.9°F7.2°C 41.9°F5.5°C 89% 2.0 mph N3.2 kmh N 4.0 mph6.4 kmh 29.99 in1015.6 mb 0.00 in0.0 mm 0.00 in/hr0.0 mm/hr 0.00 in0.0 mm
03:10 AM 45.7°F7.6°C 42.4°F5.8°C 88% 2.0 mph N3.2 kmh N 2.0 mph3.2 kmh 29.99 in1015.6 mb 0.00 in0.0 mm 0.00 in/hr0.0 mm/hr 0.00 in0.0 mm
02:55 AM 45.6°F7.6°C 42.3°F5.7°C 88% Calm Calm -- 29.99 in1015.6 mb 0.00 in0.0 mm 0.00 in/hr0.0 mm/hr 0.00 in0.0 mm
02:40 AM 45.5°F7.5°C 42.2°F5.7°C 88% 5.0 mph N8.0 kmh N 5.0 mph8.0 kmh 30.00 in1015.9 mb 0.00 in0.0 mm 0.00 in/hr0.0 mm/hr 0.00 in0.0 mm
02:25 AM 45.0°F7.2°C 41.7°F5.4°C 88% Calm Calm 5.0 mph8.0 kmh 29.99 in1015.6 mb 0.00 in0.0 mm 0.00 in/hr0.0 mm/hr 0.00 in0.0 mm
02:10 AM 43.8°F6.6°C 40.5°F4.7°C 88% Calm Calm -- 29.99 in1015.6 mb 0.00 in0.0 mm 0.00 in/hr0.0 mm/hr 0.00 in0.0 mm
01:55 AM 43.9°F6.6°C 40.0°F4.4°C 86% Calm Calm 2.0 mph3.2 kmh 29.99 in1015.6 mb 0.00 in0.0 mm 0.00 in/hr0.0 mm/hr 0.00 in0.0 mm
01:40 AM 44.3°F6.8°C 40.1°F4.5°C 85% Calm Calm 3.0 mph4.8 kmh 30.00 in1015.9 mb 0.00 in0.0 mm 0.00 in/hr0.0 mm/hr 0.00 in0.0 mm
01:25 AM 44.6°F7.0°C 40.1°F4.5°C 84% Calm Calm 3.0 mph4.8 kmh 29.99 in1015.6 mb 0.00 in0.0 mm 0.00 in/hr0.0 mm/hr 0.00 in0.0 mm
01:10 AM 44.9°F7.2°C 40.1°F4.5°C 83% Calm Calm 4.0 mph6.4 kmh 29.99 in1015.6 mb 0.00 in0.0 mm 0.00 in/hr0.0 mm/hr 0.00 in0.0 mm
12:55 AM 45.1°F7.3°C 39.9°F4.4°C 82% Calm Calm 4.0 mph6.4 kmh 30.00 in1015.9 mb 0.00 in0.0 mm 0.00 in/hr0.0 mm/hr 0.00 in0.0 mm
12:40 AM 45.3°F7.4°C 40.5°F4.7°C 83% Calm Calm 3.0 mph4.8 kmh 30.00 in1015.9 mb 0.00 in0.0 mm 0.00 in/hr0.0 mm/hr 0.00 in0.0 mm
12:25 AM 45.6°F7.6°C 40.1°F4.5°C 81% Calm Calm 2.0 mph3.2 kmh 30.00 in1015.9 mb 0.00 in0.0 mm 0.00 in/hr0.0 mm/hr 0.00 in0.0 mm
12:10 AM 45.9°F7.7°C 40.1°F4.5°C 80% Calm Calm 3.0 mph4.8 kmh 30.00 in1015.9 mb 0.00 in0.0 mm 0.00 in/hr0.0 mm/hr 0.00 in0.0 mm